Terminal Aerodrome Forecast
Issued by NWS Mt. Holly, NJ

Home | Current Version | Previous Version | Text Only | Print | Product List | Glossary On
Versions: 1 2 3 4 5 6 7 8 9 10 11 12 13 14 15 16 17 18 19 20 21 22 23 24 25 26 27 28 29
000
FTUS41 KPHI 220916 AAC
TAFILG
TAF AMD
KILG 220916Z 2209/2306 01009KT P6SM OVC035
     FM221200 02011KT P6SM OVC025
     FM221500 04010KT 5SM -RA OVC015
     FM221800 04010KT 2SM -RA BR OVC015
     FM222300 05009KT 1SM -RA BR OVC008
     FM230200 06008KT 3SM -DZ BR OVC010=

USA.gov is the U.S. government's official web portal to all federal, state and local government web resources and services.